Disclaimer

Please do not use the information listed here in-flight or in-navigation, as they are not provided to us by the airports but are provided by volunteers, so they might be outdated.

Search


Regions


Airport information page

Radio informations:
Tower (TWR) - 133.375 MHz
LANGEN RADAR - 125.225 MHz
DISPATCH - 130.425 MHz
LANGEN INFO - 129.875 MHz
Ground (GND) - 121.925 MHz

Airport informations:
Latitude: 51° 36' 50.72" N
Longitude: 008° 36' 58.74" E
Elevation: 699 feet - 213 meters
Operating hours: Remarks
Operating agency: Civil government, landing fees and diplomatic clearance may be required
Timezone: UTC+1(+2DT) - Last Sunday in March to last Sunday in October
Fuel: Jet A1, without icing nhibitor.

100/130 MIL Spec, low lead, aviation gasoline (BLUE)

Runway information:
06/24 - 7152 x 148 feet< - >2180 x 45 meters

Recent METARs:
EDLP 210250Z 12011KT 090V150 9999 BKN013 01/M01 Q1013
EDLP 210320Z 10011KT 070V130 9999 BKN013 02/M01 Q1013
EDLP 210350Z 10010KT 9999 OVC014 02/M01 Q1013

Airport on the map: